sensor_id;sensor_type;location;lat;lon;timestamp;pressure;altitude;pressure_sealevel;temperature;humidity
64294;BME280;50636;45.596;5.258;2023-05-08T00:01:12;99087.22;;;18.12;76.23
64294;BME280;50636;45.596;5.258;2023-05-08T00:03:38;99089.13;;;18.00;75.83
64294;BME280;50636;45.596;5.258;2023-05-08T00:06:04;99080.78;;;17.80;76.36
64294;BME280;50636;45.596;5.258;2023-05-08T00:08:30;99091.28;;;17.74;76.82
64294;BME280;50636;45.596;5.258;2023-05-08T00:10:56;99086.06;;;17.80;77.16
64294;BME280;50636;45.596;5.258;2023-05-08T00:13:22;99079.06;;;17.73;76.74
64294;BME280;50636;45.596;5.258;2023-05-08T00:15:48;99084.97;;;17.64;77.20
64294;BME280;50636;45.596;5.258;2023-05-08T00:18:14;99074.50;;;17.57;77.36
64294;BME280;50636;45.596;5.258;2023-05-08T00:20:39;99073.38;;;17.53;77.43
64294;BME280;50636;45.596;5.258;2023-05-08T00:23:06;99065.78;;;17.45;77.96
64294;BME280;50636;45.596;5.258;2023-05-08T00:25:31;99069.47;;;17.44;78.00
64294;BME280;50636;45.596;5.258;2023-05-08T00:27:58;99069.59;;;17.49;78.28
64294;BME280;50636;45.596;5.258;2023-05-08T00:30:24;99064.94;;;17.56;77.74
64294;BME280;50636;45.596;5.258;2023-05-08T00:32:50;99067.81;;;17.54;77.02
64294;BME280;50636;45.596;5.258;2023-05-08T00:35:16;99069.81;;;17.47;76.90
64294;BME280;50636;45.596;5.258;2023-05-08T00:37:42;99073.63;;;17.40;76.90
64294;BME280;50636;45.596;5.258;2023-05-08T00:40:09;99070.97;;;17.40;77.21
64294;BME280;50636;45.596;5.258;2023-05-08T00:42:35;99081.13;;;17.43;76.99
64294;BME280;50636;45.596;5.258;2023-05-08T00:45:01;99072.34;;;17.42;76.98
64294;BME280;50636;45.596;5.258;2023-05-08T00:47:28;99072.34;;;17.42;76.76
64294;BME280;50636;45.596;5.258;2023-05-08T00:49:54;99078.50;;;17.43;76.87
64294;BME280;50636;45.596;5.258;2023-05-08T00:52:20;99074.44;;;17.40;76.86
64294;BME280;50636;45.596;5.258;2023-05-08T00:54:47;99072.91;;;17.44;77.33
64294;BME280;50636;45.596;5.258;2023-05-08T00:57:14;99073.38;;;17.53;77.26
64294;BME280;50636;45.596;5.258;2023-05-08T00:59:41;99070.22;;;17.56;77.20
64294;BME280;50636;45.596;5.258;2023-05-08T01:02:09;99072.81;;;17.51;77.14
64294;BME280;50636;45.596;5.258;2023-05-08T01:04:35;99075.66;;;17.61;77.43
64294;BME280;50636;45.596;5.258;2023-05-08T01:07:02;99085.88;;;17.69;76.71
64294;BME280;50636;45.596;5.258;2023-05-08T01:09:28;99073.66;;;17.68;76.45
64294;BME280;50636;45.596;5.258;2023-05-08T01:14:59;99076.78;;;17.65;75.73
64294;BME280;50636;45.596;5.258;2023-05-08T01:20:07;99079.25;;;17.14;76.93
64294;BME280;50636;45.596;5.258;2023-05-08T01:28:46;99073.88;;;17.26;76.85
64294;BME280;50636;45.596;5.258;2023-05-08T01:34:32;99082.34;;;17.00;77.76
64294;BME280;50636;45.596;5.258;2023-05-08T01:37:02;99085.38;;;16.91;78.39
64294;BME280;50636;45.596;5.258;2023-05-08T01:42:31;99085.84;;;16.88;79.22
64294;BME280;50636;45.596;5.258;2023-05-08T01:45:02;99092.97;;;17.00;79.25
64294;BME280;50636;45.596;5.258;2023-05-08T01:47:32;99091.59;;;17.09;79.53
64294;BME280;50636;45.596;5.258;2023-05-08T01:50:06;99095.22;;;17.31;79.16
64294;BME280;50636;45.596;5.258;2023-05-08T01:52:45;99091.28;;;17.34;78.40
64294;BME280;50636;45.596;5.258;2023-05-08T01:55:19;99086.34;;;17.37;78.14
64294;BME280;50636;45.596;5.258;2023-05-08T01:57:52;99079.75;;;17.40;77.96
64294;BME280;50636;45.596;5.258;2023-05-08T02:00:21;99081.81;;;17.38;77.57
64294;BME280;50636;45.596;5.258;2023-05-08T02:02:49;99089.53;;;17.51;78.13
64294;BME280;50636;45.596;5.258;2023-05-08T02:05:16;99083.28;;;17.57;77.20
64294;BME280;50636;45.596;5.258;2023-05-08T02:07:44;99086.50;;;17.60;77.15
64294;BME280;50636;45.596;5.258;2023-05-08T02:10:11;99084.88;;;17.58;76.96
64294;BME280;50636;45.596;5.258;2023-05-08T02:12:39;99082.28;;;17.75;77.07
64294;BME280;50636;45.596;5.258;2023-05-08T02:15:07;99076.72;;;17.89;76.73
64294;BME280;50636;45.596;5.258;2023-05-08T02:17:35;99077.38;;;17.96;76.15
64294;BME280;50636;45.596;5.258;2023-05-08T02:20:03;99073.97;;;17.84;74.76
64294;BME280;50636;45.596;5.258;2023-05-08T02:22:30;99076.22;;;17.63;75.08
64294;BME280;50636;45.596;5.258;2023-05-08T02:24:57;99076.84;;;17.42;75.61
64294;BME280;50636;45.596;5.258;2023-05-08T02:27:27;99074.00;;;17.31;76.48
64294;BME280;50636;45.596;5.258;2023-05-08T02:29:53;99078.75;;;17.29;76.80
64294;BME280;50636;45.596;5.258;2023-05-08T02:32:20;99074.22;;;17.30;76.91
64294;BME280;50636;45.596;5.258;2023-05-08T02:34:51;99083.00;;;17.30;77.26
64294;BME280;50636;45.596;5.258;2023-05-08T02:37:19;99078.03;;;17.34;76.76
64294;BME280;50636;45.596;5.258;2023-05-08T02:39:47;99072.94;;;17.32;76.86
64294;BME280;50636;45.596;5.258;2023-05-08T02:42:14;99075.16;;;17.24;77.02
64294;BME280;50636;45.596;5.258;2023-05-08T02:44:40;99083.34;;;17.34;77.94
64294;BME280;50636;45.596;5.258;2023-05-08T02:47:26;99070.91;;;17.63;77.78
64294;BME280;50636;45.596;5.258;2023-05-08T02:52:51;99063.72;;;17.47;76.12
64294;BME280;50636;45.596;5.258;2023-05-08T02:58:22;99069.31;;;17.50;77.68
64294;BME280;50636;45.596;5.258;2023-05-08T03:00:59;99069.59;;;17.77;76.87
64294;BME280;50636;45.596;5.258;2023-05-08T03:03:44;99069.34;;;17.91;76.31
64294;BME280;50636;45.596;5.258;2023-05-08T03:06:17;99067.81;;;17.95;75.53
64294;BME280;50636;45.596;5.258;2023-05-08T03:08:45;99065.16;;;17.95;75.40
64294;BME280;50636;45.596;5.258;2023-05-08T03:11:20;99074.00;;;18.01;75.19
64294;BME280;50636;45.596;5.258;2023-05-08T03:13:47;99069.56;;;18.06;75.54
64294;BME280;50636;45.596;5.258;2023-05-08T03:16:19;99067.03;;;18.11;75.01
64294;BME280;50636;45.596;5.258;2023-05-08T03:18:52;99065.00;;;18.19;74.87
64294;BME280;50636;45.596;5.258;2023-05-08T03:21:20;99068.72;;;18.17;74.57
64294;BME280;50636;45.596;5.258;2023-05-08T03:23:48;99065.91;;;18.24;74.60
64294;BME280;50636;45.596;5.258;2023-05-08T03:26:17;99066.78;;;18.13;74.20
64294;BME280;50636;45.596;5.258;2023-05-08T03:28:50;99068.22;;;18.04;74.62
64294;BME280;50636;45.596;5.258;2023-05-08T03:31:18;99067.47;;;18.08;74.99
64294;BME280;50636;45.596;5.258;2023-05-08T03:33:48;99069.19;;;18.14;74.65
64294;BME280;50636;45.596;5.258;2023-05-08T03:36:17;99069.69;;;18.11;74.12
64294;BME280;50636;45.596;5.258;2023-05-08T03:38:43;99063.19;;;17.90;74.29
64294;BME280;50636;45.596;5.258;2023-05-08T03:41:10;99065.06;;;17.78;74.82
64294;BME280;50636;45.596;5.258;2023-05-08T03:43:36;99069.25;;;17.74;75.35
64294;BME280;50636;45.596;5.258;2023-05-08T03:46:04;99066.19;;;17.65;75.68
64294;BME280;50636;45.596;5.258;2023-05-08T03:48:33;99070.53;;;17.71;76.27
64294;BME280;50636;45.596;5.258;2023-05-08T03:51:03;99078.47;;;17.83;75.86
64294;BME280;50636;45.596;5.258;2023-05-08T03:53:30;99074.41;;;17.81;75.57
64294;BME280;50636;45.596;5.258;2023-05-08T03:55:56;99078.88;;;17.92;76.20
64294;BME280;50636;45.596;5.258;2023-05-08T03:58:49;99075.22;;;18.27;75.78
64294;BME280;50636;45.596;5.258;2023-05-08T04:01:28;99080.81;;;18.25;74.34
64294;BME280;50636;45.596;5.258;2023-05-08T04:04:06;99080.94;;;18.19;74.53
64294;BME280;50636;45.596;5.258;2023-05-08T04:06:42;99088.91;;;18.19;74.73
64294;BME280;50636;45.596;5.258;2023-05-08T04:11:50;99081.44;;;18.15;74.09
64294;BME280;50636;45.596;5.258;2023-05-08T04:14:19;99087.38;;;18.06;74.23
64294;BME280;50636;45.596;5.258;2023-05-08T04:16:51;99088.50;;;18.10;74.71
64294;BME280;50636;45.596;5.258;2023-05-08T04:19:26;99083.69;;;18.24;74.55
64294;BME280;50636;45.596;5.258;2023-05-08T04:21:54;99084.41;;;18.36;74.64
64294;BME280;50636;45.596;5.258;2023-05-08T04:24:24;99084.97;;;18.55;73.87
64294;BME280;50636;45.596;5.258;2023-05-08T04:26:52;99080.63;;;18.49;73.68
64294;BME280;50636;45.596;5.258;2023-05-08T04:29:19;99078.88;;;18.38;73.32
64294;BME280;50636;45.596;5.258;2023-05-08T04:31:45;99084.47;;;18.07;74.27
64294;BME280;50636;45.596;5.258;2023-05-08T04:34:12;99083.41;;;18.08;75.66
64294;BME280;50636;45.596;5.258;2023-05-08T04:36:39;99087.59;;;18.04;75.28
64294;BME280;50636;45.596;5.258;2023-05-08T04:39:05;99085.50;;;18.06;75.69
64294;BME280;50636;45.596;5.258;2023-05-08T04:41:30;99082.22;;;17.99;75.02
64294;BME280;50636;45.596;5.258;2023-05-08T04:43:57;99087.19;;;17.95;75.80
64294;BME280;50636;45.596;5.258;2023-05-08T04:46:23;99092.69;;;18.23;76.07
64294;BME280;50636;45.596;5.258;2023-05-08T04:48:49;99082.06;;;18.56;75.30
64294;BME280;50636;45.596;5.258;2023-05-08T04:51:15;99088.94;;;18.86;74.22
64294;BME280;50636;45.596;5.258;2023-05-08T04:53:40;99087.50;;;19.18;72.91
64294;BME280;50636;45.596;5.258;2023-05-08T04:56:06;99095.22;;;19.41;71.85
64294;BME280;50636;45.596;5.258;2023-05-08T04:58:32;99083.97;;;19.56;70.95
64294;BME280;50636;45.596;5.258;2023-05-08T05:01:01;99087.53;;;19.67;70.37
64294;BME280;50636;45.596;5.258;2023-05-08T05:03:27;99090.50;;;19.70;70.07
64294;BME280;50636;45.596;5.258;2023-05-08T05:06:02;99089.13;;;19.68;69.61
64294;BME280;50636;45.596;5.258;2023-05-08T05:08:27;99092.13;;;19.71;69.31
64294;BME280;50636;45.596;5.258;2023-05-08T05:10:53;99100.97;;;19.55;69.13
64294;BME280;50636;45.596;5.258;2023-05-08T05:13:18;99099.25;;;19.44;69.63
64294;BME280;50636;45.596;5.258;2023-05-08T05:15:44;99095.59;;;19.28;69.40
64294;BME280;50636;45.596;5.258;2023-05-08T05:18:10;99105.41;;;19.05;69.67
64294;BME280;50636;45.596;5.258;2023-05-08T05:20:37;99108.91;;;18.89;70.22
64294;BME280;50636;45.596;5.258;2023-05-08T05:23:03;99115.03;;;18.89;70.82
64294;BME280;50636;45.596;5.258;2023-05-08T05:25:29;99109.13;;;19.04;70.71
64294;BME280;50636;45.596;5.258;2023-05-08T05:27:54;99109.59;;;19.18;70.27
64294;BME280;50636;45.596;5.258;2023-05-08T05:30:20;99118.25;;;19.30;69.32
64294;BME280;50636;45.596;5.258;2023-05-08T05:32:46;99111.03;;;19.26;69.52
64294;BME280;50636;45.596;5.258;2023-05-08T05:35:12;99111.56;;;19.28;69.36
64294;BME280;50636;45.596;5.258;2023-05-08T05:37:38;99114.66;;;19.42;69.29
64294;BME280;50636;45.596;5.258;2023-05-08T05:40:04;99107.22;;;19.66;68.59
64294;BME280;50636;45.596;5.258;2023-05-08T05:42:30;99113.09;;;19.90;67.76
64294;BME280;50636;45.596;5.258;2023-05-08T05:44:56;99105.31;;;20.10;66.78
64294;BME280;50636;45.596;5.258;2023-05-08T05:47:21;99114.53;;;20.30;65.65
64294;BME280;50636;45.596;5.258;2023-05-08T05:49:47;99111.47;;;20.43;65.00
64294;BME280;50636;45.596;5.258;2023-05-08T05:52:13;99104.06;;;20.50;64.37
64294;BME280;50636;45.596;5.258;2023-05-08T05:54:39;99108.75;;;20.38;64.76
64294;BME280;50636;45.596;5.258;2023-05-08T05:57:06;99110.59;;;20.32;64.47
64294;BME280;50636;45.596;5.258;2023-05-08T05:59:32;99113.25;;;20.32;64.78
64294;BME280;50636;45.596;5.258;2023-05-08T06:01:58;99111.41;;;20.38;64.33
64294;BME280;50636;45.596;5.258;2023-05-08T06:04:23;99115.16;;;20.37;64.12
64294;BME280;50636;45.596;5.258;2023-05-08T06:06:49;99115.09;;;20.32;64.32
64294;BME280;50636;45.596;5.258;2023-05-08T06:09:15;99108.38;;;20.24;64.12
64294;BME280;50636;45.596;5.258;2023-05-08T06:11:41;99113.16;;;20.22;64.08
64294;BME280;50636;45.596;5.258;2023-05-08T06:14:07;99111.63;;;20.31;64.30
64294;BME280;50636;45.596;5.258;2023-05-08T06:16:32;99092.72;;;20.65;63.74
64294;BME280;50636;45.596;5.258;2023-05-08T06:19:00;99094.53;;;21.02;62.89
64294;BME280;50636;45.596;5.258;2023-05-08T06:21:26;99094.97;;;21.31;61.61
64294;BME280;50636;45.596;5.258;2023-05-08T06:23:53;99095.03;;;21.47;61.28
64294;BME280;50636;45.596;5.258;2023-05-08T06:26:19;99094.28;;;21.51;60.75
64294;BME280;50636;45.596;5.258;2023-05-08T06:28:45;99095.59;;;21.54;60.38
64294;BME280;50636;45.596;5.258;2023-05-08T06:31:11;99096.38;;;21.44;59.80
64294;BME280;50636;45.596;5.258;2023-05-08T06:33:37;99090.72;;;21.41;60.19
64294;BME280;50636;45.596;5.258;2023-05-08T06:36:04;99088.13;;;21.56;60.49
64294;BME280;50636;45.596;5.258;2023-05-08T06:38:30;99091.69;;;21.92;60.08
64294;BME280;50636;45.596;5.258;2023-05-08T06:40:56;99098.13;;;22.17;58.86
64294;BME280;50636;45.596;5.258;2023-05-08T06:43:21;99103.78;;;22.26;58.24
64294;BME280;50636;45.596;5.258;2023-05-08T06:45:47;99096.25;;;22.12;57.74
64294;BME280;50636;45.596;5.258;2023-05-08T06:48:13;99096.25;;;21.92;58.07
64294;BME280;50636;45.596;5.258;2023-05-08T06:50:39;99095.69;;;21.85;58.84
64294;BME280;50636;45.596;5.258;2023-05-08T06:53:06;99098.13;;;22.02;58.50
64294;BME280;50636;45.596;5.258;2023-05-08T06:55:32;99096.28;;;22.07;58.17
64294;BME280;50636;45.596;5.258;2023-05-08T06:57:57;99103.19;;;22.03;57.57
64294;BME280;50636;45.596;5.258;2023-05-08T07:00:23;99104.25;;;21.97;57.94
64294;BME280;50636;45.596;5.258;2023-05-08T07:02:50;99102.63;;;21.91;57.64
64294;BME280;50636;45.596;5.258;2023-05-08T07:05:15;99104.50;;;21.80;58.04
64294;BME280;50636;45.596;5.258;2023-05-08T07:07:42;99108.00;;;21.86;58.05
64294;BME280;50636;45.596;5.258;2023-05-08T07:10:08;99113.09;;;22.08;57.25
64294;BME280;50636;45.596;5.258;2023-05-08T07:12:34;99110.44;;;22.18;56.75
64294;BME280;50636;45.596;5.258;2023-05-08T07:14:59;99118.50;;;22.33;56.61
64294;BME280;50636;45.596;5.258;2023-05-08T07:17:25;99111.28;;;22.39;55.81
64294;BME280;50636;45.596;5.258;2023-05-08T07:19:51;99112.88;;;22.45;56.47
64294;BME280;50636;45.596;5.258;2023-05-08T07:22:16;99121.44;;;22.68;55.73
64294;BME280;50636;45.596;5.258;2023-05-08T07:24:42;99121.94;;;22.90;54.90
64294;BME280;50636;45.596;5.258;2023-05-08T07:27:08;99128.81;;;23.32;54.32
64294;BME280;50636;45.596;5.258;2023-05-08T07:29:34;99128.34;;;23.85;52.85
64294;BME280;50636;45.596;5.258;2023-05-08T07:32:08;99119.56;;;25.36;49.88
64294;BME280;50636;45.596;5.258;2023-05-08T07:34:34;99119.63;;;26.64;46.37
64294;BME280;50636;45.596;5.258;2023-05-08T07:36:59;99121.22;;;26.32;45.10
64294;BME280;50636;45.596;5.258;2023-05-08T07:39:25;99115.09;;;25.88;46.31
64294;BME280;50636;45.596;5.258;2023-05-08T07:41:50;99121.38;;;25.41;46.52
64294;BME280;50636;45.596;5.258;2023-05-08T07:44:16;99138.50;;;24.97;47.71
64294;BME280;50636;45.596;5.258;2023-05-08T07:46:42;99132.81;;;24.74;47.63
64294;BME280;50636;45.596;5.258;2023-05-08T07:49:07;99126.84;;;25.36;47.09
64294;BME280;50636;45.596;5.258;2023-05-08T07:51:33;99133.63;;;25.28;46.27
64294;BME280;50636;45.596;5.258;2023-05-08T07:53:59;99130.94;;;25.52;46.14
64294;BME280;50636;45.596;5.258;2023-05-08T07:56:24;99127.00;;;26.58;43.94
64294;BME280;50636;45.596;5.258;2023-05-08T07:58:51;99119.56;;;26.69;42.68
64294;BME280;50636;45.596;5.258;2023-05-08T08:01:17;99120.44;;;26.13;43.53
64294;BME280;50636;45.596;5.258;2023-05-08T08:03:44;99121.72;;;25.77;44.31
64294;BME280;50636;45.596;5.258;2023-05-08T08:06:10;99119.94;;;25.91;44.05
64294;BME280;50636;45.596;5.258;2023-05-08T08:08:36;99129.47;;;26.55;43.18
64294;BME280;50636;45.596;5.258;2023-05-08T08:11:02;99129.44;;;27.70;41.48
64294;BME280;50636;45.596;5.258;2023-05-08T08:13:27;99118.00;;;29.09;39.64
64294;BME280;50636;45.596;5.258;2023-05-08T08:15:53;99107.84;;;30.51;36.93
64294;BME280;50636;45.596;5.258;2023-05-08T08:18:19;99112.50;;;30.97;35.43
64294;BME280;50636;45.596;5.258;2023-05-08T08:20:44;99109.13;;;30.53;35.48
64294;BME280;50636;45.596;5.258;2023-05-08T08:23:10;99108.97;;;30.23;35.44
64294;BME280;50636;45.596;5.258;2023-05-08T08:25:36;99104.66;;;30.40;35.48
64294;BME280;50636;45.596;5.258;2023-05-08T08:28:01;99109.63;;;30.94;34.46
64294;BME280;50636;45.596;5.258;2023-05-08T08:30:27;99098.56;;;31.08;33.69
64294;BME280;50636;45.596;5.258;2023-05-08T08:32:53;99103.69;;;31.09;33.05
64294;BME280;50636;45.596;5.258;2023-05-08T08:35:18;99111.81;;;30.53;33.79
64294;BME280;50636;45.596;5.258;2023-05-08T08:37:44;99105.44;;;29.04;35.55
64294;BME280;50636;45.596;5.258;2023-05-08T08:40:10;99120.50;;;27.61;37.99
64294;BME280;50636;45.596;5.258;2023-05-08T08:42:36;99117.59;;;26.56;39.79
64294;BME280;50636;45.596;5.258;2023-05-08T08:45:01;99113.06;;;25.80;41.77
64294;BME280;50636;45.596;5.258;2023-05-08T08:47:28;99125.78;;;26.97;40.95
64294;BME280;50636;45.596;5.258;2023-05-08T08:50:01;99106.16;;;30.02;36.76
64294;BME280;50636;45.596;5.258;2023-05-08T08:52:46;99106.44;;;32.35;32.19
64294;BME280;50636;45.596;5.258;2023-05-08T08:55:15;99111.44;;;31.49;31.27
64294;BME280;50636;45.596;5.258;2023-05-08T09:00:20;99105.00;;;30.12;33.58
64294;BME280;50636;45.596;5.258;2023-05-08T09:02:47;99108.03;;;30.93;33.00
64294;BME280;50636;45.596;5.258;2023-05-08T09:05:13;99096.09;;;31.74;31.65
64294;BME280;50636;45.596;5.258;2023-05-08T09:07:39;99103.06;;;31.84;31.57
64294;BME280;50636;45.596;5.258;2023-05-08T09:10:06;99106.56;;;31.63;31.36
64294;BME280;50636;45.596;5.258;2023-05-08T09:12:32;99112.66;;;31.01;32.17
64294;BME280;50636;45.596;5.258;2023-05-08T09:14:58;99120.47;;;29.94;33.58
64294;BME280;50636;45.596;5.258;2023-05-08T09:17:24;99118.72;;;29.81;34.20
64294;BME280;50636;45.596;5.258;2023-05-08T09:19:50;99116.72;;;29.55;34.90
64294;BME280;50636;45.596;5.258;2023-05-08T09:22:16;99116.84;;;30.72;33.18
64294;BME280;50636;45.596;5.258;2023-05-08T09:24:59;99117.22;;;32.44;30.79
64294;BME280;50636;45.596;5.258;2023-05-08T09:27:27;99110.28;;;32.68;29.81
64294;BME280;50636;45.596;5.258;2023-05-08T09:29:59;99115.19;;;31.65;30.71
64294;BME280;50636;45.596;5.258;2023-05-08T09:32:30;99124.13;;;30.33;32.64
64294;BME280;50636;45.596;5.258;2023-05-08T09:34:56;99125.38;;;29.75;34.03
64294;BME280;50636;45.596;5.258;2023-05-08T09:37:22;99128.03;;;29.48;34.81
64294;BME280;50636;45.596;5.258;2023-05-08T09:39:47;99130.72;;;29.48;34.16
64294;BME280;50636;45.596;5.258;2023-05-08T09:42:15;99125.34;;;29.66;34.23
64294;BME280;50636;45.596;5.258;2023-05-08T09:44:53;99130.19;;;29.86;33.50
64294;BME280;50636;45.596;5.258;2023-05-08T09:47:21;99127.13;;;30.23;33.44
64294;BME280;50636;45.596;5.258;2023-05-08T09:49:57;99121.72;;;30.14;33.18
64294;BME280;50636;45.596;5.258;2023-05-08T09:52:24;99129.06;;;29.79;33.74
64294;BME280;50636;45.596;5.258;2023-05-08T09:54:58;99128.34;;;29.47;34.02
64294;BME280;50636;45.596;5.258;2023-05-08T09:57:25;99129.88;;;28.91;34.96
64294;BME280;50636;45.596;5.258;2023-05-08T10:00:00;99139.31;;;28.71;35.65
64294;BME280;50636;45.596;5.258;2023-05-08T10:02:25;99116.56;;;29.43;33.88
64294;BME280;50636;45.596;5.258;2023-05-08T10:04:51;99139.72;;;29.84;33.44
64294;BME280;50636;45.596;5.258;2023-05-08T10:07:26;99126.75;;;30.68;31.86
64294;BME280;50636;45.596;5.258;2023-05-08T10:10:05;99122.06;;;30.30;32.31
64294;BME280;50636;45.596;5.258;2023-05-08T10:12:32;99126.16;;;30.54;32.61
64294;BME280;50636;45.596;5.258;2023-05-08T10:14:58;99128.56;;;31.02;31.75
64294;BME280;50636;45.596;5.258;2023-05-08T10:17:27;99130.28;;;30.60;31.80
64294;BME280;50636;45.596;5.258;2023-05-08T10:20:05;99121.09;;;30.17;33.00
64294;BME280;50636;45.596;5.258;2023-05-08T10:22:35;99123.56;;;31.43;31.76
64294;BME280;50636;45.596;5.258;2023-05-08T10:25:02;99125.84;;;32.46;30.11
64294;BME280;50636;45.596;5.258;2023-05-08T10:27:42;99132.00;;;32.01;30.13
64294;BME280;50636;45.596;5.258;2023-05-08T10:30:12;99127.16;;;30.96;31.23
64294;BME280;50636;45.596;5.258;2023-05-08T10:32:42;99132.41;;;30.02;32.09
64294;BME280;50636;45.596;5.258;2023-05-08T10:35:10;99134.63;;;29.16;34.00
64294;BME280;50636;45.596;5.258;2023-05-08T10:37:37;99124.91;;;28.53;35.19
64294;BME280;50636;45.596;5.258;2023-05-08T10:40:04;99128.91;;;27.82;36.52
64294;BME280;50636;45.596;5.258;2023-05-08T10:42:33;99138.53;;;27.05;37.66
64294;BME280;50636;45.596;5.258;2023-05-08T10:45:00;99137.53;;;26.55;38.79
64294;BME280;50636;45.596;5.258;2023-05-08T10:53:10;99133.38;;;26.10;40.51
64294;BME280;50636;45.596;5.258;2023-05-08T10:55:40;99147.13;;;25.90;40.82
64294;BME280;50636;45.596;5.258;2023-05-08T10:58:15;99141.16;;;25.50;41.77
64294;BME280;50636;45.596;5.258;2023-05-08T11:03:19;99135.00;;;25.25;42.00
64294;BME280;50636;45.596;5.258;2023-05-08T11:05:46;99112.25;;;25.61;41.31
64294;BME280;50636;45.596;5.258;2023-05-08T11:08:20;99125.66;;;26.23;40.80
64294;BME280;50636;45.596;5.258;2023-05-08T11:13:36;99121.94;;;28.18;37.55
64294;BME280;50636;45.596;5.258;2023-05-08T11:16:03;99117.03;;;28.42;36.35
64294;BME280;50636;45.596;5.258;2023-05-08T11:18:31;99114.59;;;28.32;36.63
64294;BME280;50636;45.596;5.258;2023-05-08T11:23:36;99118.28;;;27.63;37.81
64294;BME280;50636;45.596;5.258;2023-05-08T11:26:12;99123.28;;;28.06;37.53
64294;BME280;50636;45.596;5.258;2023-05-08T11:29:01;99115.22;;;28.83;35.67
64294;BME280;50636;45.596;5.258;2023-05-08T11:31:49;99107.28;;;28.10;36.29
64294;BME280;50636;45.596;5.258;2023-05-08T11:34:50;99119.63;;;27.75;36.96
64294;BME280;50636;45.596;5.258;2023-05-08T11:37:20;99113.53;;;27.83;36.84
64294;BME280;50636;45.596;5.258;2023-05-08T11:39:47;99109.34;;;27.77;36.66
64294;BME280;50636;45.596;5.258;2023-05-08T11:45:19;99102.34;;;27.53;37.38
64294;BME280;50636;45.596;5.258;2023-05-08T11:47:45;99105.13;;;27.34;38.02
64294;BME280;50636;45.596;5.258;2023-05-08T11:50:12;99105.72;;;27.03;38.42
64294;BME280;50636;45.596;5.258;2023-05-08T11:52:40;99110.47;;;26.65;38.62
64294;BME280;50636;45.596;5.258;2023-05-08T11:55:08;99093.31;;;26.42;39.55
64294;BME280;50636;45.596;5.258;2023-05-08T11:57:34;99107.41;;;26.20;39.48
64294;BME280;50636;45.596;5.258;2023-05-08T12:00:10;99110.69;;;26.17;39.66
64294;BME280;50636;45.596;5.258;2023-05-08T12:02:37;99108.69;;;26.41;39.56
64294;BME280;50636;45.596;5.258;2023-05-08T12:05:04;99101.50;;;26.69;38.50
64294;BME280;50636;45.596;5.258;2023-05-08T12:07:30;99099.44;;;26.80;38.11
64294;BME280;50636;45.596;5.258;2023-05-08T12:09:56;99092.84;;;27.00;37.79
64294;BME280;50636;45.596;5.258;2023-05-08T12:12:22;99096.03;;;27.44;37.15
64294;BME280;50636;45.596;5.258;2023-05-08T12:14:49;99090.31;;;27.73;35.87
64294;BME280;50636;45.596;5.258;2023-05-08T12:17:18;99090.09;;;27.69;35.62
64294;BME280;50636;45.596;5.258;2023-05-08T12:19:44;99089.66;;;27.90;35.13
64294;BME280;50636;45.596;5.258;2023-05-08T12:22:10;99080.41;;;28.05;35.32
64294;BME280;50636;45.596;5.258;2023-05-08T12:24:35;99076.75;;;28.23;34.87
64294;BME280;50636;45.596;5.258;2023-05-08T12:27:02;99081.56;;;28.35;34.72
64294;BME280;50636;45.596;5.258;2023-05-08T12:29:28;99081.16;;;28.73;34.36
64294;BME280;50636;45.596;5.258;2023-05-08T12:31:53;99076.59;;;28.82;32.94
64294;BME280;50636;45.596;5.258;2023-05-08T12:34:20;99080.09;;;28.83;33.32
64294;BME280;50636;45.596;5.258;2023-05-08T12:36:46;99073.25;;;28.85;33.22
64294;BME280;50636;45.596;5.258;2023-05-08T12:39:15;99074.56;;;28.88;32.90
64294;BME280;50636;45.596;5.258;2023-05-08T12:41:51;99074.69;;;28.83;33.04
64294;BME280;50636;45.596;5.258;2023-05-08T12:44:24;99075.13;;;28.76;33.03
64294;BME280;50636;45.596;5.258;2023-05-08T12:46:56;99068.63;;;28.77;33.11
64294;BME280;50636;45.596;5.258;2023-05-08T12:49:26;99079.78;;;28.84;32.39
64294;BME280;50636;45.596;5.258;2023-05-08T12:52:06;99067.63;;;29.04;32.77
64294;BME280;50636;45.596;5.258;2023-05-08T12:54:39;99059.91;;;29.29;32.06
64294;BME280;50636;45.596;5.258;2023-05-08T12:57:08;99059.25;;;29.15;32.78
64294;BME280;50636;45.596;5.258;2023-05-08T12:59:34;99054.41;;;29.03;32.51
64294;BME280;50636;45.596;5.258;2023-05-08T13:02:00;99064.53;;;28.88;32.49
64294;BME280;50636;45.596;5.258;2023-05-08T13:04:26;99060.66;;;28.72;33.00
64294;BME280;50636;45.596;5.258;2023-05-08T13:06:55;99055.00;;;28.28;34.03
64294;BME280;50636;45.596;5.258;2023-05-08T13:09:22;99056.53;;;28.21;34.48
64294;BME280;50636;45.596;5.258;2023-05-08T13:11:47;99051.16;;;28.21;34.56
64294;BME280;50636;45.596;5.258;2023-05-08T13:14:13;99043.16;;;28.38;35.00
64294;BME280;50636;45.596;5.258;2023-05-08T13:16:46;99044.56;;;28.58;34.62
64294;BME280;50636;45.596;5.258;2023-05-08T13:19:16;99039.53;;;28.74;34.88
64294;BME280;50636;45.596;5.258;2023-05-08T13:21:45;99036.34;;;29.21;34.18
64294;BME280;50636;45.596;5.258;2023-05-08T13:24:15;99034.66;;;29.77;33.15
64294;BME280;50636;45.596;5.258;2023-05-08T13:26:41;99025.84;;;30.24;32.04
64294;BME280;50636;45.596;5.258;2023-05-08T13:29:07;99025.03;;;30.32;32.07
64294;BME280;50636;45.596;5.258;2023-05-08T13:31:33;99017.38;;;30.34;32.35
64294;BME280;50636;45.596;5.258;2023-05-08T13:33:58;99011.75;;;30.57;31.47
64294;BME280;50636;45.596;5.258;2023-05-08T13:36:24;99006.56;;;30.34;31.80
64294;BME280;50636;45.596;5.258;2023-05-08T13:38:50;99009.34;;;29.64;32.72
64294;BME280;50636;45.596;5.258;2023-05-08T13:41:19;99003.84;;;29.03;33.60
64294;BME280;50636;45.596;5.258;2023-05-08T13:43:46;98995.84;;;28.72;34.46
64294;BME280;50636;45.596;5.258;2023-05-08T13:46:12;99001.72;;;28.65;33.48
64294;BME280;50636;45.596;5.258;2023-05-08T13:48:38;99009.03;;;28.42;34.21
64294;BME280;50636;45.596;5.258;2023-05-08T13:51:04;98994.94;;;28.23;34.13